sensor_id;sensor_type;location;lat;lon;timestamp;temperature;humidity
32095;DHT22;18608;53.688;10.748;2022-12-15T00:02:42;-8.00;99.90
32095;DHT22;18608;53.688;10.748;2022-12-15T00:05:26;-8.20;99.90
32095;DHT22;18608;53.688;10.748;2022-12-15T00:08:10;-8.20;99.90
32095;DHT22;18608;53.688;10.748;2022-12-15T00:10:54;-8.20;99.90
32095;DHT22;18608;53.688;10.748;2022-12-15T00:13:39;-8.20;99.90
32095;DHT22;18608;53.688;10.748;2022-12-15T00:16:23;-8.30;99.90
32095;DHT22;18608;53.688;10.748;2022-12-15T00:19:08;-8.30;99.90
32095;DHT22;18608;53.688;10.748;2022-12-15T00:21:52;-8.40;99.90
32095;DHT22;18608;53.688;10.748;2022-12-15T00:24:36;-8.50;99.90
32095;DHT22;18608;53.688;10.748;2022-12-15T00:27:20;-9.60;99.90
32095;DHT22;18608;53.688;10.748;2022-12-15T00:30:05;-8.60;99.90
32095;DHT22;18608;53.688;10.748;2022-12-15T00:32:50;-8.60;99.90
32095;DHT22;18608;53.688;10.748;2022-12-15T00:35:34;-8.60;99.90
32095;DHT22;18608;53.688;10.748;2022-12-15T00:38:18;-8.60;99.90
32095;DHT22;18608;53.688;10.748;2022-12-15T00:41:03;-8.60;99.90
32095;DHT22;18608;53.688;10.748;2022-12-15T00:43:30;-8.60;99.90
32095;DHT22;18608;53.688;10.748;2022-12-15T00:45:57;-8.60;99.90
32095;DHT22;18608;53.688;10.748;2022-12-15T00:48:42;-8.60;99.90
32095;DHT22;18608;53.688;10.748;2022-12-15T00:51:08;-8.60;99.90
32095;DHT22;18608;53.688;10.748;2022-12-15T00:53:34;-8.50;99.90
32095;DHT22;18608;53.688;10.748;2022-12-15T00:56:19;-8.50;99.90
32095;DHT22;18608;53.688;10.748;2022-12-15T00:59:03;-8.30;99.90
32095;DHT22;18608;53.688;10.748;2022-12-15T01:01:47;-8.20;99.90
32095;DHT22;18608;53.688;10.748;2022-12-15T01:04:31;-8.20;99.90
32095;DHT22;18608;53.688;10.748;2022-12-15T01:07:16;-8.20;99.90
32095;DHT22;18608;53.688;10.748;2022-12-15T01:10:00;-8.00;99.90
32095;DHT22;18608;53.688;10.748;2022-12-15T01:12:45;-7.80;99.90
32095;DHT22;18608;53.688;10.748;2022-12-15T01:15:30;-7.70;99.90
32095;DHT22;18608;53.688;10.748;2022-12-15T01:18:14;-7.50;99.90
32095;DHT22;18608;53.688;10.748;2022-12-15T01:21:01;-7.40;99.90
32095;DHT22;18608;53.688;10.748;2022-12-15T01:23:27;-8.10;99.90
32095;DHT22;18608;53.688;10.748;2022-12-15T01:25:53;-8.20;99.90
32095;DHT22;18608;53.688;10.748;2022-12-15T01:28:20;-8.30;99.90
32095;DHT22;18608;53.688;10.748;2022-12-15T01:30:47;-8.10;99.90
32095;DHT22;18608;53.688;10.748;2022-12-15T01:33:13;-8.00;99.90
32095;DHT22;18608;53.688;10.748;2022-12-15T01:35:39;-7.90;99.90
32095;DHT22;18608;53.688;10.748;2022-12-15T01:38:06;-8.00;99.90
32095;DHT22;18608;53.688;10.748;2022-12-15T01:40:31;-8.00;99.90
32095;DHT22;18608;53.688;10.748;2022-12-15T01:43:12;-8.00;99.90
32095;DHT22;18608;53.688;10.748;2022-12-15T01:49:04;-8.10;99.90
32095;DHT22;18608;53.688;10.748;2022-12-15T01:51:39;-8.00;99.90
32095;DHT22;18608;53.688;10.748;2022-12-15T01:56:46;-7.80;99.90
32095;DHT22;18608;53.688;10.748;2022-12-15T01:59:18;-8.00;99.90
32095;DHT22;18608;53.688;10.748;2022-12-15T02:01:45;-8.20;99.90
32095;DHT22;18608;53.688;10.748;2022-12-15T02:04:11;-9.30;99.90
32095;DHT22;18608;53.688;10.748;2022-12-15T02:06:37;-8.20;99.90
32095;DHT22;18608;53.688;10.748;2022-12-15T02:09:04;-8.20;99.90
32095;DHT22;18608;53.688;10.748;2022-12-15T02:14:04;-8.10;99.90
32095;DHT22;18608;53.688;10.748;2022-12-15T02:32:45;-7.90;99.90
32095;DHT22;18608;53.688;10.748;2022-12-15T02:35:45;-7.90;99.90
32095;DHT22;18608;53.688;10.748;2022-12-15T02:38:11;-7.70;99.90
32095;DHT22;18608;53.688;10.748;2022-12-15T02:40:38;-7.80;99.90
32095;DHT22;18608;53.688;10.748;2022-12-15T02:43:05;-7.80;99.90
32095;DHT22;18608;53.688;10.748;2022-12-15T02:45:53;-7.80;99.90
32095;DHT22;18608;53.688;10.748;2022-12-15T02:48:35;-7.90;99.90
32095;DHT22;18608;53.688;10.748;2022-12-15T02:59:31;-7.70;99.90
32095;DHT22;18608;53.688;10.748;2022-12-15T03:02:05;-7.70;99.90
32095;DHT22;18608;53.688;10.748;2022-12-15T03:04:32;-7.70;99.90
32095;DHT22;18608;53.688;10.748;2022-12-15T03:07:01;-7.80;99.90
32095;DHT22;18608;53.688;10.748;2022-12-15T03:09:29;-8.00;99.90
32095;DHT22;18608;53.688;10.748;2022-12-15T03:11:55;-7.90;99.90
32095;DHT22;18608;53.688;10.748;2022-12-15T03:14:20;-8.00;99.90
32095;DHT22;18608;53.688;10.748;2022-12-15T03:16:46;-8.00;99.90
32095;DHT22;18608;53.688;10.748;2022-12-15T03:19:12;-8.00;99.90
32095;DHT22;18608;53.688;10.748;2022-12-15T03:21:37;-8.00;99.90
32095;DHT22;18608;53.688;10.748;2022-12-15T03:24:03;-8.00;99.90
32095;DHT22;18608;53.688;10.748;2022-12-15T03:26:29;-8.00;99.90
32095;DHT22;18608;53.688;10.748;2022-12-15T03:28:54;-8.00;99.90
32095;DHT22;18608;53.688;10.748;2022-12-15T03:31:20;-8.00;99.90
32095;DHT22;18608;53.688;10.748;2022-12-15T03:33:45;-8.00;99.90
32095;DHT22;18608;53.688;10.748;2022-12-15T03:36:11;-8.00;99.90
32095;DHT22;18608;53.688;10.748;2022-12-15T03:38:37;-8.10;99.90
32095;DHT22;18608;53.688;10.748;2022-12-15T03:41:02;-8.00;99.90
32095;DHT22;18608;53.688;10.748;2022-12-15T03:43:28;-8.00;99.90
32095;DHT22;18608;53.688;10.748;2022-12-15T03:45:53;-8.00;99.90
32095;DHT22;18608;53.688;10.748;2022-12-15T03:48:19;-8.00;99.90
32095;DHT22;18608;53.688;10.748;2022-12-15T03:50:47;-8.00;99.90
32095;DHT22;18608;53.688;10.748;2022-12-15T03:53:14;-8.00;99.90
32095;DHT22;18608;53.688;10.748;2022-12-15T03:55:40;-8.00;99.90
32095;DHT22;18608;53.688;10.748;2022-12-15T03:58:05;-7.90;99.90
32095;DHT22;18608;53.688;10.748;2022-12-15T04:00:32;-7.90;99.90
32095;DHT22;18608;53.688;10.748;2022-12-15T04:02:58;-7.90;99.90
32095;DHT22;18608;53.688;10.748;2022-12-15T04:05:26;-7.90;99.90
32095;DHT22;18608;53.688;10.748;2022-12-15T04:07:54;-8.00;99.90
32095;DHT22;18608;53.688;10.748;2022-12-15T04:10:20;-7.90;99.90
32095;DHT22;18608;53.688;10.748;2022-12-15T04:12:46;-7.90;99.90
32095;DHT22;18608;53.688;10.748;2022-12-15T04:15:12;-7.80;99.90
32095;DHT22;18608;53.688;10.748;2022-12-15T04:17:38;-7.80;99.90
32095;DHT22;18608;53.688;10.748;2022-12-15T04:20:04;-7.80;99.90
32095;DHT22;18608;53.688;10.748;2022-12-15T04:22:45;-7.80;99.90
32095;DHT22;18608;53.688;10.748;2022-12-15T04:25:14;-7.90;99.90
32095;DHT22;18608;53.688;10.748;2022-12-15T04:27:59;-7.90;99.90
32095;DHT22;18608;53.688;10.748;2022-12-15T04:30:48;-8.00;99.90
32095;DHT22;18608;53.688;10.748;2022-12-15T04:33:34;-7.90;99.90
32095;DHT22;18608;53.688;10.748;2022-12-15T04:36:19;-7.90;99.90
32095;DHT22;18608;53.688;10.748;2022-12-15T04:39:03;-7.90;99.90
32095;DHT22;18608;53.688;10.748;2022-12-15T04:41:48;-7.80;99.90
32095;DHT22;18608;53.688;10.748;2022-12-15T04:44:32;-7.80;99.90
32095;DHT22;18608;53.688;10.748;2022-12-15T04:47:17;-7.80;99.90
32095;DHT22;18608;53.688;10.748;2022-12-15T04:50:01;-7.80;99.90
32095;DHT22;18608;53.688;10.748;2022-12-15T04:52:45;-7.80;99.90
32095;DHT22;18608;53.688;10.748;2022-12-15T04:55:34;-7.70;99.90
32095;DHT22;18608;53.688;10.748;2022-12-15T04:58:19;-7.70;99.90
32095;DHT22;18608;53.688;10.748;2022-12-15T05:01:03;-7.70;99.90
32095;DHT22;18608;53.688;10.748;2022-12-15T05:03:47;-7.60;99.90
32095;DHT22;18608;53.688;10.748;2022-12-15T05:06:31;-7.70;99.90
32095;DHT22;18608;53.688;10.748;2022-12-15T05:09:15;-7.60;99.90
32095;DHT22;18608;53.688;10.748;2022-12-15T05:12:00;-7.60;99.90
32095;DHT22;18608;53.688;10.748;2022-12-15T05:14:44;-7.60;99.90
32095;DHT22;18608;53.688;10.748;2022-12-15T05:17:28;-7.60;99.90
32095;DHT22;18608;53.688;10.748;2022-12-15T05:20:12;-7.50;99.90
32095;DHT22;18608;53.688;10.748;2022-12-15T05:22:57;-7.50;99.90
32095;DHT22;18608;53.688;10.748;2022-12-15T05:25:42;-7.40;99.90
32095;DHT22;18608;53.688;10.748;2022-12-15T05:28:26;-7.40;99.90
32095;DHT22;18608;53.688;10.748;2022-12-15T05:31:11;-7.20;99.90
32095;DHT22;18608;53.688;10.748;2022-12-15T05:33:56;-7.30;99.90
32095;DHT22;18608;53.688;10.748;2022-12-15T05:36:22;-7.40;99.90
32095;DHT22;18608;53.688;10.748;2022-12-15T05:38:49;-7.40;99.90
32095;DHT22;18608;53.688;10.748;2022-12-15T05:41:16;-7.50;99.90
32095;DHT22;18608;53.688;10.748;2022-12-15T05:43:41;-7.50;99.90
32095;DHT22;18608;53.688;10.748;2022-12-15T05:46:07;-7.60;99.90
32095;DHT22;18608;53.688;10.748;2022-12-15T05:48:32;-7.80;99.90
32095;DHT22;18608;53.688;10.748;2022-12-15T05:51:08;-7.70;99.90
32095;DHT22;18608;53.688;10.748;2022-12-15T05:53:36;-7.70;99.90
32095;DHT22;18608;53.688;10.748;2022-12-15T05:56:03;-7.80;99.90
32095;DHT22;18608;53.688;10.748;2022-12-15T05:58:29;-7.90;99.90
32095;DHT22;18608;53.688;10.748;2022-12-15T06:01:02;-8.00;99.90
32095;DHT22;18608;53.688;10.748;2022-12-15T06:03:28;-7.90;99.90
32095;DHT22;18608;53.688;10.748;2022-12-15T06:05:53;-8.00;99.90
32095;DHT22;18608;53.688;10.748;2022-12-15T06:08:19;-7.90;99.90
32095;DHT22;18608;53.688;10.748;2022-12-15T06:10:51;-7.80;99.90
32095;DHT22;18608;53.688;10.748;2022-12-15T06:13:18;-7.80;99.90
32095;DHT22;18608;53.688;10.748;2022-12-15T06:15:53;-7.70;99.90
32095;DHT22;18608;53.688;10.748;2022-12-15T06:18:19;-7.70;99.90
32095;DHT22;18608;53.688;10.748;2022-12-15T06:20:44;-7.70;99.90
32095;DHT22;18608;53.688;10.748;2022-12-15T06:23:10;-7.60;99.90
32095;DHT22;18608;53.688;10.748;2022-12-15T06:25:36;-7.60;99.90
32095;DHT22;18608;53.688;10.748;2022-12-15T06:28:01;-7.50;99.90
32095;DHT22;18608;53.688;10.748;2022-12-15T06:30:27;-7.50;99.90
32095;DHT22;18608;53.688;10.748;2022-12-15T06:32:52;-7.40;99.90
32095;DHT22;18608;53.688;10.748;2022-12-15T06:35:19;-7.30;99.90
32095;DHT22;18608;53.688;10.748;2022-12-15T06:37:46;-7.40;99.90
32095;DHT22;18608;53.688;10.748;2022-12-15T06:40:11;-7.40;99.90
32095;DHT22;18608;53.688;10.748;2022-12-15T06:42:37;-7.30;99.90
32095;DHT22;18608;53.688;10.748;2022-12-15T06:45:03;-7.50;99.90
32095;DHT22;18608;53.688;10.748;2022-12-15T06:47:29;-7.50;99.90
32095;DHT22;18608;53.688;10.748;2022-12-15T06:49:54;-7.60;99.90
32095;DHT22;18608;53.688;10.748;2022-12-15T06:52:20;-7.40;99.90
32095;DHT22;18608;53.688;10.748;2022-12-15T06:54:45;-7.50;99.90
32095;DHT22;18608;53.688;10.748;2022-12-15T06:57:11;-7.50;99.90
32095;DHT22;18608;53.688;10.748;2022-12-15T06:59:37;-7.40;99.90
32095;DHT22;18608;53.688;10.748;2022-12-15T07:02:03;-5.60;99.90
32095;DHT22;18608;53.688;10.748;2022-12-15T07:04:31;-7.30;99.90
32095;DHT22;18608;53.688;10.748;2022-12-15T07:06:57;-7.30;99.90
32095;DHT22;18608;53.688;10.748;2022-12-15T07:09:23;-7.40;99.90
32095;DHT22;18608;53.688;10.748;2022-12-15T07:11:50;-5.80;99.90
32095;DHT22;18608;53.688;10.748;2022-12-15T07:14:16;-7.30;99.90
32095;DHT22;18608;53.688;10.748;2022-12-15T07:16:42;-7.30;99.90
32095;DHT22;18608;53.688;10.748;2022-12-15T07:19:10;-7.40;99.90
32095;DHT22;18608;53.688;10.748;2022-12-15T07:21:37;-7.40;99.90
32095;DHT22;18608;53.688;10.748;2022-12-15T07:24:03;-7.50;99.90
32095;DHT22;18608;53.688;10.748;2022-12-15T07:26:28;-7.50;99.90
32095;DHT22;18608;53.688;10.748;2022-12-15T07:28:54;-7.50;99.90
32095;DHT22;18608;53.688;10.748;2022-12-15T07:31:21;-7.50;99.90
32095;DHT22;18608;53.688;10.748;2022-12-15T07:33:47;-7.50;99.90
32095;DHT22;18608;53.688;10.748;2022-12-15T07:36:12;-7.50;99.90
32095;DHT22;18608;53.688;10.748;2022-12-15T07:38:38;-7.50;99.90
32095;DHT22;18608;53.688;10.748;2022-12-15T07:41:05;-7.40;99.90
32095;DHT22;18608;53.688;10.748;2022-12-15T07:43:31;-7.40;99.90
32095;DHT22;18608;53.688;10.748;2022-12-15T07:45:57;-7.40;99.90
32095;DHT22;18608;53.688;10.748;2022-12-15T07:48:23;-7.40;99.90
32095;DHT22;18608;53.688;10.748;2022-12-15T07:50:48;-7.50;99.90
32095;DHT22;18608;53.688;10.748;2022-12-15T07:53:16;-7.50;99.90
32095;DHT22;18608;53.688;10.748;2022-12-15T07:55:41;-7.60;99.90
32095;DHT22;18608;53.688;10.748;2022-12-15T07:58:07;-7.60;99.90
32095;DHT22;18608;53.688;10.748;2022-12-15T08:00:33;-7.60;99.90
32095;DHT22;18608;53.688;10.748;2022-12-15T08:03:00;-7.50;99.90
32095;DHT22;18608;53.688;10.748;2022-12-15T08:05:27;-7.40;99.90
32095;DHT22;18608;53.688;10.748;2022-12-15T08:07:52;-7.30;99.90
32095;DHT22;18608;53.688;10.748;2022-12-15T08:10:18;-7.30;99.90
32095;DHT22;18608;53.688;10.748;2022-12-15T08:12:43;-7.20;99.90
32095;DHT22;18608;53.688;10.748;2022-12-15T08:15:09;-7.10;99.90
32095;DHT22;18608;53.688;10.748;2022-12-15T08:17:36;-7.10;99.90
32095;DHT22;18608;53.688;10.748;2022-12-15T08:20:01;-7.10;99.90
32095;DHT22;18608;53.688;10.748;2022-12-15T08:22:28;-7.10;99.90
32095;DHT22;18608;53.688;10.748;2022-12-15T08:24:53;-6.90;99.90
32095;DHT22;18608;53.688;10.748;2022-12-15T08:27:19;-6.90;99.90
32095;DHT22;18608;53.688;10.748;2022-12-15T08:29:45;-6.90;99.90
32095;DHT22;18608;53.688;10.748;2022-12-15T08:32:11;-6.90;99.90
32095;DHT22;18608;53.688;10.748;2022-12-15T08:34:38;-6.80;99.90
32095;DHT22;18608;53.688;10.748;2022-12-15T08:37:04;-6.70;99.90
32095;DHT22;18608;53.688;10.748;2022-12-15T08:39:29;-6.70;99.90
32095;DHT22;18608;53.688;10.748;2022-12-15T08:41:55;-6.60;99.90
32095;DHT22;18608;53.688;10.748;2022-12-15T08:44:21;-6.50;99.90
32095;DHT22;18608;53.688;10.748;2022-12-15T08:46:47;-6.40;99.90
32095;DHT22;18608;53.688;10.748;2022-12-15T08:49:12;-6.30;99.90
32095;DHT22;18608;53.688;10.748;2022-12-15T08:51:38;-6.20;99.90
32095;DHT22;18608;53.688;10.748;2022-12-15T08:54:04;-6.10;99.90
32095;DHT22;18608;53.688;10.748;2022-12-15T08:56:29;-6.00;99.90
32095;DHT22;18608;53.688;10.748;2022-12-15T08:58:57;-5.90;99.90
32095;DHT22;18608;53.688;10.748;2022-12-15T09:01:24;-5.80;99.90
32095;DHT22;18608;53.688;10.748;2022-12-15T09:03:52;-5.60;99.90
32095;DHT22;18608;53.688;10.748;2022-12-15T09:06:29;-5.40;99.90
32095;DHT22;18608;53.688;10.748;2022-12-15T09:08:57;-5.30;99.90
32095;DHT22;18608;53.688;10.748;2022-12-15T09:11:24;-5.10;99.90
32095;DHT22;18608;53.688;10.748;2022-12-15T09:13:50;-4.90;99.90
32095;DHT22;18608;53.688;10.748;2022-12-15T09:16:17;-4.80;99.90
32095;DHT22;18608;53.688;10.748;2022-12-15T09:18:46;-4.70;99.90
32095;DHT22;18608;53.688;10.748;2022-12-15T09:21:12;-4.60;99.90
32095;DHT22;18608;53.688;10.748;2022-12-15T09:23:39;-4.60;99.90
32095;DHT22;18608;53.688;10.748;2022-12-15T09:26:07;-4.50;99.90
32095;DHT22;18608;53.688;10.748;2022-12-15T09:28:33;-4.40;99.90
32095;DHT22;18608;53.688;10.748;2022-12-15T09:31:04;-4.30;99.90
32095;DHT22;18608;53.688;10.748;2022-12-15T09:33:30;-4.30;99.90
32095;DHT22;18608;53.688;10.748;2022-12-15T09:35:56;-4.30;99.90
32095;DHT22;18608;53.688;10.748;2022-12-15T09:38:21;-4.30;99.90
32095;DHT22;18608;53.688;10.748;2022-12-15T09:40:47;-4.30;99.90
32095;DHT22;18608;53.688;10.748;2022-12-15T09:43:17;-4.20;99.90
32095;DHT22;18608;53.688;10.748;2022-12-15T09:45:52;-4.20;99.90
32095;DHT22;18608;53.688;10.748;2022-12-15T09:48:23;-4.10;99.90
32095;DHT22;18608;53.688;10.748;2022-12-15T09:50:56;-3.90;99.90
32095;DHT22;18608;53.688;10.748;2022-12-15T09:53:23;-3.80;99.90
32095;DHT22;18608;53.688;10.748;2022-12-15T09:56:03;-3.80;99.90
32095;DHT22;18608;53.688;10.748;2022-12-15T09:58:47;-3.70;99.90
32095;DHT22;18608;53.688;10.748;2022-12-15T10:01:42;-3.60;99.90
32095;DHT22;18608;53.688;10.748;2022-12-15T10:09:32;-3.20;99.90
32095;DHT22;18608;53.688;10.748;2022-12-15T10:12:11;-2.90;99.90
32095;DHT22;18608;53.688;10.748;2022-12-15T10:14:48;-2.60;99.90
32095;DHT22;18608;53.688;10.748;2022-12-15T10:17:31;-2.40;99.90
32095;DHT22;18608;53.688;10.748;2022-12-15T10:22:33;-2.50;99.90
32095;DHT22;18608;53.688;10.748;2022-12-15T10:25:17;-2.60;99.90
32095;DHT22;18608;53.688;10.748;2022-12-15T10:30:12;-2.60;99.90
32095;DHT22;18608;53.688;10.748;2022-12-15T10:33:00;-2.60;99.90
32095;DHT22;18608;53.688;10.748;2022-12-15T10:35:32;-2.50;99.90
32095;DHT22;18608;53.688;10.748;2022-12-15T10:38:00;-2.60;99.90
32095;DHT22;18608;53.688;10.748;2022-12-15T10:43:34;-2.60;99.90
32095;DHT22;18608;53.688;10.748;2022-12-15T10:46:12;-2.50;99.90
32095;DHT22;18608;53.688;10.748;2022-12-15T10:48:40;-2.50;99.90
32095;DHT22;18608;53.688;10.748;2022-12-15T10:51:37;-2.60;99.90
32095;DHT22;18608;53.688;10.748;2022-12-15T10:54:13;-2.70;99.90
32095;DHT22;18608;53.688;10.748;2022-12-15T10:56:52;-2.70;99.90
32095;DHT22;18608;53.688;10.748;2022-12-15T10:59:35;-2.60;99.90
32095;DHT22;18608;53.688;10.748;2022-12-15T11:04:56;-2.50;99.90
32095;DHT22;18608;53.688;10.748;2022-12-15T11:07:25;-2.60;99.90
32095;DHT22;18608;53.688;10.748;2022-12-15T11:09:58;-3.60;99.90
32095;DHT22;18608;53.688;10.748;2022-12-15T11:12:29;-2.50;99.90
32095;DHT22;18608;53.688;10.748;2022-12-15T11:15:37;-2.50;99.90
32095;DHT22;18608;53.688;10.748;2022-12-15T11:21:27;-2.30;99.90
32095;DHT22;18608;53.688;10.748;2022-12-15T11:23:29;-2.30;99.90
32095;DHT22;18608;53.688;10.748;2022-12-15T11:26:04;-2.30;99.90
32095;DHT22;18608;53.688;10.748;2022-12-15T11:28:40;-2.30;99.90
32095;DHT22;18608;53.688;10.748;2022-12-15T11:31:33;-2.20;99.90
32095;DHT22;18608;53.688;10.748;2022-12-15T11:34:01;-2.20;99.90
32095;DHT22;18608;53.688;10.748;2022-12-15T11:36:57;-2.20;99.90
32095;DHT22;18608;53.688;10.748;2022-12-15T11:48:22;-2.00;99.90
32095;DHT22;18608;53.688;10.748;2022-12-15T11:51:13;-1.90;99.90
32095;DHT22;18608;53.688;10.748;2022-12-15T11:53:59;-1.80;99.90
32095;DHT22;18608;53.688;10.748;2022-12-15T11:56:38;-1.70;99.90
32095;DHT22;18608;53.688;10.748;2022-12-15T12:02:14;-1.50;99.90
32095;DHT22;18608;53.688;10.748;2022-12-15T12:05:12;-1.50;99.90
32095;DHT22;18608;53.688;10.748;2022-12-15T12:08:30;-1.50;99.90
32095;DHT22;18608;53.688;10.748;2022-12-15T12:10:50;-1.30;99.90
32095;DHT22;18608;53.688;10.748;2022-12-15T12:19:10;-1.00;99.90
32095;DHT22;18608;53.688;10.748;2022-12-15T12:21:41;-1.00;99.90
32095;DHT22;18608;53.688;10.748;2022-12-15T12:24:25;-1.00;99.90
32095;DHT22;18608;53.688;10.748;2022-12-15T12:27:08;-1.00;99.90
32095;DHT22;18608;53.688;10.748;2022-12-15T12:29:47;-0.90;99.90
32095;DHT22;18608;53.688;10.748;2022-12-15T12:35:35;-0.70;99.90
32095;DHT22;18608;53.688;10.748;2022-12-15T12:38:05;-0.70;99.90
32095;DHT22;18608;53.688;10.748;2022-12-15T12:43:03;-0.90;99.90
32095;DHT22;18608;53.688;10.748;2022-12-15T12:48:10;-0.80;99.90
32095;DHT22;18608;53.688;10.748;2022-12-15T12:50:37;-0.80;99.90
32095;DHT22;18608;53.688;10.748;2022-12-15T12:53:03;-0.90;99.90
32095;DHT22;18608;53.688;10.748;2022-12-15T12:55:37;-0.80;99.90
32095;DHT22;18608;53.688;10.748;2022-12-15T12:58:39;-0.80;99.90
32095;DHT22;18608;53.688;10.748;2022-12-15T13:03:39;-0.70;99.90
32095;DHT22;18608;53.688;10.748;2022-12-15T13:09:22;-0.80;99.90
32095;DHT22;18608;53.688;10.748;2022-12-15T13:14:29;-0.80;99.90
32095;DHT22;18608;53.688;10.748;2022-12-15T13:17:02;-0.80;99.90
32095;DHT22;18608;53.688;10.748;2022-12-15T13:22:36;-0.90;99.90
32095;DHT22;18608;53.688;10.748;2022-12-15T13:25:26;-0.90;99.90
32095;DHT22;18608;53.688;10.748;2022-12-15T13:27:58;-0.90;99.90
32095;DHT22;18608;53.688;10.748;2022-12-15T13:30:25;-0.90;99.90
32095;DHT22;18608;53.688;10.748;2022-12-15T13:32:53;-0.90;99.90
32095;DHT22;18608;53.688;10.748;2022-12-15T13:35:30;-0.90;99.90
32095;DHT22;18608;53.688;10.748;2022-12-15T13:38:02;-0.80;99.90
32095;DHT22;18608;53.688;10.748;2022-12-15T13:40:29;-0.80;99.90
32095;DHT22;18608;53.688;10.748;2022-12-15T13:53:40;-0.60;99.90
32095;DHT22;18608;53.688;10.748;2022-12-15T13:58:42;-0.80;99.90
32095;DHT22;18608;53.688;10.748;2022-12-15T14:01:26;-0.70;99.90
32095;DHT22;18608;53.688;10.748;2022-12-15T14:04:12;-0.70;99.90
32095;DHT22;18608;53.688;10.748;2022-12-15T14:09:33;-0.60;99.90
32095;DHT22;18608;53.688;10.748;2022-12-15T14:12:04;-0.60;99.90
32095;DHT22;18608;53.688;10.748;2022-12-15T14:14:34;-0.60;99.90
32095;DHT22;18608;53.688;10.748;2022-12-15T14:17:06;-0.70;99.90
32095;DHT22;18608;53.688;10.748;2022-12-15T14:19:41;-0.70;99.90
32095;DHT22;18608;53.688;10.748;2022-12-15T14:24:47;-0.60;99.90
32095;DHT22;18608;53.688;10.748;2022-12-15T14:27:24;-0.60;99.90
32095;DHT22;18608;53.688;10.748;2022-12-15T14:32:43;-0.50;99.90
32095;DHT22;18608;53.688;10.748;2022-12-15T14:35:29;-0.70;99.90
32095;DHT22;18608;53.688;10.748;2022-12-15T14:37:57;-0.50;99.90
32095;DHT22;18608;53.688;10.748;2022-12-15T14:40:24;-0.40;99.90
32095;DHT22;18608;53.688;10.748;2022-12-15T14:42:52;-0.30;99.90
32095;DHT22;18608;53.688;10.748;2022-12-15T14:45:27;-0.30;99.90
32095;DHT22;18608;53.688;10.748;2022-12-15T14:47:59;-0.40;99.90
32095;DHT22;18608;53.688;10.748;2022-12-15T14:50:25;-0.50;99.90
32095;DHT22;18608;53.688;10.748;2022-12-15T14:52:58;-0.40;99.90
32095;DHT22;18608;53.688;10.748;2022-12-15T14:55:33;-0.50;99.90
32095;DHT22;18608;53.688;10.748;2022-12-15T14:58:00;-0.40;99.90
32095;DHT22;18608;53.688;10.748;2022-12-15T15:00:36;-0.30;99.90
32095;DHT22;18608;53.688;10.748;2022-12-15T15:03:16;-0.30;99.90
32095;DHT22;18608;53.688;10.748;2022-12-15T15:10:52;-0.50;99.90
32095;DHT22;18608;53.688;10.748;2022-12-15T15:13:24;-0.40;99.90
32095;DHT22;18608;53.688;10.748;2022-12-15T15:15:52;-0.50;99.90
32095;DHT22;18608;53.688;10.748;2022-12-15T15:18:22;-0.60;99.90
32095;DHT22;18608;53.688;10.748;2022-12-15T15:20:57;-0.70;99.90
32095;DHT22;18608;53.688;10.748;2022-12-15T15:23:24;-0.70;99.90
32095;DHT22;18608;53.688;10.748;2022-12-15T15:25:55;1.00;99.90
32095;DHT22;18608;53.688;10.748;2022-12-15T15:28:23;-0.80;99.90
32095;DHT22;18608;53.688;10.748;2022-12-15T15:30:52;-0.90;99.90
32095;DHT22;18608;53.688;10.748;2022-12-15T15:33:18;-0.90;99.90
32095;DHT22;18608;53.688;10.748;2022-12-15T15:35:50;-0.90;99.90
32095;DHT22;18608;53.688;10.748;2022-12-15T15:38:33;-0.80;99.90
32095;DHT22;18608;53.688;10.748;2022-12-15T15:41:07;-0.80;99.90
32095;DHT22;18608;53.688;10.748;2022-12-15T15:43:36;-0.80;99.90
32095;DHT22;18608;53.688;10.748;2022-12-15T15:46:11;-0.90;99.90
32095;DHT22;18608;53.688;10.748;2022-12-15T15:48:42;-0.90;99.90
32095;DHT22;18608;53.688;10.748;2022-12-15T15:51:09;-1.00;99.90
32095;DHT22;18608;53.688;10.748;2022-12-15T15:53:36;-1.10;99.90
32095;DHT22;18608;53.688;10.748;2022-12-15T15:56:04;-1.10;99.90
32095;DHT22;18608;53.688;10.748;2022-12-15T15:58:32;-1.20;99.90
32095;DHT22;18608;53.688;10.748;2022-12-15T16:00:57;-1.20;99.90
32095;DHT22;18608;53.688;10.748;2022-12-15T16:03:23;-1.20;99.90
32095;DHT22;18608;53.688;10.748;2022-12-15T16:05:49;-1.00;99.90
32095;DHT22;18608;53.688;10.748;2022-12-15T16:08:18;-1.10;99.90
32095;DHT22;18608;53.688;10.748;2022-12-15T16:10:47;-1.00;99.90
32095;DHT22;18608;53.688;10.748;2022-12-15T16:13:18;-1.00;99.90
32095;DHT22;18608;53.688;10.748;2022-12-15T16:15:44;-1.00;99.90
32095;DHT22;18608;53.688;10.748;2022-12-15T16:18:11;-1.00;99.90
32095;DHT22;18608;53.688;10.748;2022-12-15T16:20:38;-1.00;99.90
32095;DHT22;18608;53.688;10.748;2022-12-15T16:23:11;-1.00;99.90
32095;DHT22;18608;53.688;10.748;2022-12-15T16:25:45;-0.90;99.90
32095;DHT22;18608;53.688;10.748;2022-12-15T16:28:12;-0.80;99.90
32095;DHT22;18608;53.688;10.748;2022-12-15T16:30:39;-0.70;99.90
32095;DHT22;18608;53.688;10.748;2022-12-15T16:33:05;-0.70;99.90
32095;DHT22;18608;53.688;10.748;2022-12-15T16:35:31;-0.70;99.90
32095;DHT22;18608;53.688;10.748;2022-12-15T16:37:57;-0.80;99.90
32095;DHT22;18608;53.688;10.748;2022-12-15T16:40:25;-0.90;99.90
32095;DHT22;18608;53.688;10.748;2022-12-15T16:42:57;-1.00;99.90
32095;DHT22;18608;53.688;10.748;2022-12-15T16:45:25;-1.10;99.90
32095;DHT22;18608;53.688;10.748;2022-12-15T16:47:51;-1.10;99.90
32095;DHT22;18608;53.688;10.748;2022-12-15T16:50:20;-1.10;99.90
32095;DHT22;18608;53.688;10.748;2022-12-15T16:52:48;-1.10;99.90
32095;DHT22;18608;53.688;10.748;2022-12-15T16:55:20;-1.10;99.90
32095;DHT22;18608;53.688;10.748;2022-12-15T16:57:47;-1.10;99.90
32095;DHT22;18608;53.688;10.748;2022-12-15T17:00:21;-1.00;99.90
32095;DHT22;18608;53.688;10.748;2022-12-15T17:02:49;-0.90;99.90
32095;DHT22;18608;53.688;10.748;2022-12-15T17:05:15;-1.00;99.90
32095;DHT22;18608;53.688;10.748;2022-12-15T17:07:42;-1.00;99.90
32095;DHT22;18608;53.688;10.748;2022-12-15T17:10:16;-0.90;99.90
32095;DHT22;18608;53.688;10.748;2022-12-15T17:12:43;-0.90;99.90
32095;DHT22;18608;53.688;10.748;2022-12-15T17:15:21;-0.70;99.90
32095;DHT22;18608;53.688;10.748;2022-12-15T17:17:48;-0.70;99.90
32095;DHT22;18608;53.688;10.748;2022-12-15T17:20:15;-0.60;99.90
32095;DHT22;18608;53.688;10.748;2022-12-15T17:22:43;-0.40;99.90
32095;DHT22;18608;53.688;10.748;2022-12-15T17:25:19;-0.50;99.90
32095;DHT22;18608;53.688;10.748;2022-12-15T17:27:46;-0.40;99.90
32095;DHT22;18608;53.688;10.748;2022-12-15T17:30:13;-0.30;99.90
32095;DHT22;18608;53.688;10.748;2022-12-15T17:32:40;-0.20;99.90
32095;DHT22;18608;53.688;10.748;2022-12-15T17:35:07;-0.20;99.90
32095;DHT22;18608;53.688;10.748;2022-12-15T17:37:33;-0.20;99.90
32095;DHT22;18608;53.688;10.748;2022-12-15T17:39:58;-0.20;99.90
32095;DHT22;18608;53.688;10.748;2022-12-15T17:42:24;-0.40;99.90